Time;durP1;ratioP1;P1;durP2;ratioP2;P2;SDS_P1;SDS_P2;PMS_P1;PMS_P2;Temp;Humidity;BMP_temperature;BMP_pressure;BME280_temperature;BME280_humidity;BME280_pressure;Samples;Min_cycle;Max_cycle;Signal;HPM_P1;HPM_P2
2021/07/18 04:00:56;;;;;;;7.43;6.70;;;17.80;99.90;;;;;;5721533;23;20532;-62
2021/07/18 04:03:23;;;;;;;7.90;7.10;;;17.70;99.90;;;;;;4978791;28;20501;-62
2021/07/18 04:05:49;;;;;;;7.13;6.53;;;17.80;99.90;;;;;;4978786;28;20458;-60
2021/07/18 04:08:16;;;;;;;9.20;6.37;;;17.70;99.90;;;;;;4978764;28;20462;-62
2021/07/18 04:10:43;;;;;;;7.00;5.57;;;17.80;99.90;;;;;;4978695;28;20478;-62
2021/07/18 04:13:10;;;;;;;6.77;5.70;;;17.80;99.90;;;;;;4978649;28;20450;-61
2021/07/18 04:15:37;;;;;;;8.00;5.60;;;17.80;99.90;;;;;;4978517;28;20458;-62
2021/07/18 04:18:09;;;;;;;6.00;5.50;;;17.80;99.90;;;;;;4978694;28;20462;-62
2021/07/18 04:20:36;;;;;;;6.43;5.37;;;17.90;99.90;;;;;;4978236;28;20506;-62
2021/07/18 04:23:03;;;;;;;5.87;5.30;;;17.90;99.90;;;;;;4978546;28;20454;-61
2021/07/18 04:25:29;;;;;;;6.37;5.70;;;17.90;99.90;;;;;;4977984;28;20836;-61
2021/07/18 04:27:56;;;;;;;7.60;5.00;;;17.90;99.90;;;;;;4978358;28;20822;-63
2021/07/18 04:30:23;;;;;;;6.20;5.20;;;18.00;99.90;;;;;;4978251;28;20525;-61
2021/07/18 04:32:50;;;;;;;7.40;5.90;;;18.00;99.90;;;;;;4978188;28;20468;-62
2021/07/18 04:35:19;;;;;;;5.13;4.43;;;18.00;99.90;;;;;;4978772;28;20493;-61
2021/07/18 04:37:46;;;;;;;8.73;4.90;;;18.00;99.90;;;;;;4978304;28;20454;-63
2021/07/18 04:40:14;;;;;;;5.20;4.80;;;18.10;99.90;;;;;;4978694;28;20465;-62
2021/07/18 04:42:41;;;;;;;7.53;4.50;;;18.10;99.90;;;;;;4978696;28;20973;-61
2021/07/18 04:45:09;;;;;;;5.60;4.73;;;18.20;99.90;;;;;;4978563;28;20486;-61
2021/07/18 04:47:44;;;;;;;4.20;3.87;;;18.10;99.90;;;;;;4978771;28;20505;-63
2021/07/18 04:50:11;;;;;;;5.00;4.50;;;18.10;99.90;;;;;;4978559;28;20864;-61
2021/07/18 04:52:39;;;;;;;4.00;3.60;;;18.20;99.90;;;;;;4978920;28;20942;-61
2021/07/18 04:55:08;;;;;;;4.87;4.17;;;18.20;99.90;;;;;;4978327;28;20524;-63
2021/07/18 04:57:34;;;;;;;4.10;3.70;;;18.20;99.90;;;;;;4979033;28;20458;-62
2021/07/18 05:00:01;;;;;;;5.00;4.17;;;18.20;99.90;;;;;;4978068;28;20825;-67
2021/07/18 05:02:28;;;;;;;7.23;4.10;;;18.30;99.90;;;;;;4977694;28;20489;-62
2021/07/18 05:04:54;;;;;;;6.50;4.23;;;18.30;99.90;;;;;;4978429;28;20526;-63
2021/07/18 05:07:21;;;;;;;4.37;3.40;;;18.30;99.90;;;;;;4977916;28;20465;-62
2021/07/18 05:09:49;;;;;;;3.40;3.10;;;18.40;99.90;;;;;;4977790;28;20942;-60
2021/07/18 05:12:16;;;;;;;3.67;3.37;;;18.50;99.90;;;;;;4977813;28;20878;-61
2021/07/18 05:14:45;;;;;;;3.93;3.17;;;18.50;99.90;;;;;;4977927;28;20458;-62
2021/07/18 05:17:12;;;;;;;3.07;2.80;;;18.50;99.90;;;;;;4977614;28;20454;-61
2021/07/18 05:19:39;;;;;;;4.23;3.00;;;18.60;99.90;;;;;;4977450;28;20458;-62
2021/07/18 05:22:06;;;;;;;3.43;3.13;;;18.60;99.90;;;;;;4977577;28;20478;-63
2021/07/18 05:24:33;;;;;;;3.47;3.27;;;18.70;99.90;;;;;;4977672;28;20451;-62
2021/07/18 05:27:01;;;;;;;3.63;3.17;;;18.80;99.90;;;;;;4977525;28;20902;-62
2021/07/18 05:29:28;;;;;;;5.10;3.10;;;18.90;99.90;;;;;;4977445;28;20794;-62
2021/07/18 05:31:54;;;;;;;3.30;3.00;;;18.90;99.90;;;;;;4977635;28;20879;-61
2021/07/18 05:34:21;;;;;;;5.63;2.70;;;18.90;99.90;;;;;;4977689;28;20517;-61
2021/07/18 05:36:48;;;;;;;5.27;3.27;;;19.00;99.90;;;;;;4977322;28;20829;-62
2021/07/18 05:39:14;;;;;;;4.60;3.03;;;19.10;99.90;;;;;;4977484;28;20817;-62
2021/07/18 05:41:41;;;;;;;4.57;2.77;;;19.20;99.90;;;;;;4977216;28;20490;-62
2021/07/18 05:44:09;;;;;;;8.60;2.60;;;19.20;99.90;;;;;;4977333;28;20454;-62
2021/07/18 05:46:36;;;;;;;3.20;2.90;;;19.40;99.90;;;;;;4977424;28;20455;-63
2021/07/18 05:49:02;;;;;;;3.60;3.30;;;19.50;99.90;;;;;;4977005;28;20455;-60
2021/07/18 05:51:29;;;;;;;4.73;2.90;;;19.50;99.90;;;;;;4976840;28;20538;-61
2021/07/18 05:53:56;;;;;;;3.10;2.80;;;19.50;99.90;;;;;;4977381;28;20977;-62
2021/07/18 05:56:22;;;;;;;5.20;3.20;;;19.60;99.90;;;;;;4976747;28;21073;-61
2021/07/18 05:58:49;;;;;;;4.57;3.60;;;19.60;99.90;;;;;;4976741;28;20469;-62
2021/07/18 06:01:17;;;;;;;3.37;3.07;;;19.70;99.90;;;;;;4976376;28;20897;-61
2021/07/18 06:03:44;;;;;;;3.77;2.67;;;19.90;99.90;;;;;;4976752;28;20455;-61
2021/07/18 06:06:10;;;;;;;3.07;2.87;;;19.90;99.90;;;;;;4976747;28;20459;-61
2021/07/18 06:08:37;;;;;;;5.87;3.00;;;20.00;99.90;;;;;;4976557;28;20455;-62
2021/07/18 06:11:04;;;;;;;3.37;2.80;;;20.00;99.90;;;;;;4976416;28;20477;-61
2021/07/18 06:13:31;;;;;;;4.43;3.00;;;20.10;99.90;;;;;;4976189;28;20961;-61
2021/07/18 06:15:57;;;;;;;2.50;2.40;;;20.20;99.90;;;;;;4976461;28;20459;-61
2021/07/18 06:18:25;;;;;;;2.60;2.40;;;20.30;99.90;;;;;;4976501;28;20867;-61
2021/07/18 06:20:52;;;;;;;6.87;2.50;;;20.20;99.90;;;;;;4975618;28;20485;-60
2021/07/18 06:23:19;;;;;;;2.80;2.60;;;20.30;99.90;;;;;;4976083;28;20840;-62
2021/07/18 06:25:45;;;;;;;3.17;2.87;;;20.40;99.90;;;;;;4976356;28;20459;-61
2021/07/18 06:28:12;;;;;;;3.07;2.80;;;20.50;99.90;;;;;;4976484;28;20457;-62
2021/07/18 06:30:39;;;;;;;4.67;3.17;;;20.70;99.90;;;;;;4976458;28;20475;-62
2021/07/18 06:33:05;;;;;;;6.30;3.20;;;20.80;99.90;;;;;;4977213;28;20459;-62
2021/07/18 06:35:33;;;;;;;4.00;2.87;;;20.70;99.90;;;;;;4976481;28;20462;-62
2021/07/18 06:38:01;;;;;;;3.17;2.97;;;20.80;99.90;;;;;;4976111;28;20454;-62
2021/07/18 06:40:27;;;;;;;4.00;2.40;;;20.90;99.90;;;;;;4978615;28;20542;-61
2021/07/18 06:42:54;;;;;;;4.10;2.33;;;21.10;99.90;;;;;;4984319;28;20490;-62
2021/07/18 06:45:21;;;;;;;2.90;2.60;;;21.20;99.90;;;;;;4979009;28;20450;-62
2021/07/18 06:47:48;;;;;;;3.47;2.40;;;21.40;99.90;;;;;;4976954;28;20455;-62
2021/07/18 06:50:15;;;;;;;2.53;2.33;;;21.60;99.90;;;;;;4976689;28;20458;-63
2021/07/18 06:52:43;;;;;;;3.60;2.33;;;21.50;99.90;;;;;;4976435;28;20541;-62
2021/07/18 06:55:10;;;;;;;4.27;2.43;;;21.70;99.90;;;;;;4975634;28;20461;-62
2021/07/18 06:57:37;;;;;;;4.97;2.57;;;22.10;99.90;;;;;;4976170;28;20466;-62
2021/07/18 07:00:06;;;;;;;5.07;2.43;;;22.50;99.90;;;;;;4975585;28;20451;-61
2021/07/18 07:02:33;;;;;;;5.40;2.63;;;23.00;99.90;;;;;;4975025;28;20518;-61
2021/07/18 07:05:00;;;;;;;3.47;2.97;;;23.40;99.90;;;;;;4975693;28;20868;-62
2021/07/18 07:07:27;;;;;;;5.13;2.53;;;24.00;99.90;;;;;;4975801;28;20462;-61
2021/07/18 07:09:55;;;;;;;2.73;2.23;;;24.40;99.90;;;;;;4975920;28;20458;-62
2021/07/18 07:12:21;;;;;;;2.70;2.50;;;24.50;99.90;;;;;;4976464;28;20485;-62
2021/07/18 07:14:48;;;;;;;3.13;2.40;;;24.70;99.90;;;;;;4976264;28;20458;-62
2021/07/18 07:17:15;;;;;;;4.70;2.13;;;25.50;99.90;;;;;;4975454;28;20455;-62
2021/07/18 07:19:41;;;;;;;5.93;2.40;;;26.00;99.90;;;;;;4975302;28;20466;-61
2021/07/18 07:22:08;;;;;;;2.83;2.63;;;26.30;99.90;;;;;;4975265;28;20482;-61
2021/07/18 07:24:35;;;;;;;3.00;2.70;;;26.70;99.90;;;;;;4975290;28;20465;-62
2021/07/18 07:27:03;;;;;;;6.10;2.87;;;27.10;99.90;;;;;;4975460;28;20465;-62
2021/07/18 07:29:30;;;;;;;2.83;2.40;;;27.10;99.90;;;;;;4975237;28;20454;-62
2021/07/18 07:31:57;;;;;;;4.63;2.17;;;27.20;99.90;;;;;;4975101;28;20474;-62
2021/07/18 07:34:24;;;;;;;2.93;2.50;;;26.70;99.90;;;;;;4974459;28;20841;-62
2021/07/18 07:36:50;;;;;;;4.77;2.40;;;27.10;99.90;;;;;;4975192;28;20509;-62
2021/07/18 07:39:17;;;;;;;2.73;2.53;;;27.40;99.90;;;;;;4974980;28;20463;-62
2021/07/18 07:41:44;;;;;;;3.00;2.70;;;27.70;99.90;;;;;;4975015;28;20489;-63
2021/07/18 07:44:12;;;;;;;2.67;2.47;;;28.10;99.90;;;;;;4975087;28;20460;-61
2021/07/18 07:46:39;;;;;;;3.10;2.77;;;28.10;99.50;;;;;;4974832;28;20962;-61
2021/07/18 07:49:05;;;;;;;3.10;2.87;;;28.40;98.70;;;;;;4975246;28;20459;-62
2021/07/18 07:51:32;;;;;;;4.93;2.70;;;28.40;99.40;;;;;;4975532;28;20478;-61
2021/07/18 07:54:00;;;;;;;3.07;2.40;;;28.80;99.20;;;;;;4975515;28;20470;-61
2021/07/18 07:56:26;;;;;;;5.17;2.90;;;29.30;98.20;;;;;;4975716;28;20462;-62
2021/07/18 07:58:53;;;;;;;3.30;3.10;;;29.70;96.20;;;;;;4974839;28;20466;-62
2021/07/18 08:01:21;;;;;;;2.67;2.47;;;30.00;95.20;;;;;;4974400;28;20552;-62
2021/07/18 08:03:48;;;;;;;5.10;2.70;;;30.40;97.70;;;;;;4974743;28;20454;-63
2021/07/18 08:06:14;;;;;;;3.63;2.77;;;30.60;95.10;;;;;;4974858;28;20455;-62
2021/07/18 08:08:41;;;;;;;5.47;3.00;;;30.40;92.70;;;;;;4976136;28;20466;-63
2021/07/18 08:11:08;;;;;;;2.97;2.60;;;30.10;93.10;;;;;;4976177;28;20482;-61
2021/07/18 08:13:35;;;;;;;2.63;2.43;;;30.60;94.00;;;;;;4974620;28;20794;-62
2021/07/18 08:16:02;;;;;;;4.03;2.70;;;30.70;93.00;;;;;;4974821;28;20505;-63
2021/07/18 08:18:30;;;;;;;4.40;2.60;;;30.80;92.60;;;;;;4974515;28;20458;-62
2021/07/18 08:20:57;;;;;;;2.93;2.73;;;30.90;90.80;;;;;;4974583;28;20483;-62
2021/07/18 08:23:23;;;;;;;2.30;2.20;;;31.00;91.50;;;;;;4974674;28;20896;-63
2021/07/18 08:25:50;;;;;;;4.10;2.80;;;30.80;90.30;;;;;;4974838;28;20509;-62
2021/07/18 08:28:17;;;;;;;4.73;2.80;;;30.80;91.60;;;;;;4974743;28;20458;-62
2021/07/18 08:30:44;;;;;;;5.30;2.70;;;30.70;90.90;;;;;;4974719;28;20478;-61
2021/07/18 08:33:11;;;;;;;3.20;2.87;;;29.90;90.20;;;;;;4974909;28;20455;-63
2021/07/18 08:35:40;;;;;;;2.80;2.13;;;29.60;92.20;;;;;;4975130;28;20525;-62
2021/07/18 08:38:07;;;;;;;5.30;2.87;;;30.20;92.70;;;;;;4977751;28;20466;-61
2021/07/18 08:40:38;;;;;;;9.03;2.80;;;30.50;91.10;;;;;;4981304;28;20502;-62
2021/07/18 08:43:06;;;;;;;3.30;3.00;;;30.90;90.40;;;;;;4980285;28;20463;-61
2021/07/18 08:45:34;;;;;;;2.93;2.73;;;31.10;90.30;;;;;;4983194;28;20454;-61
2021/07/18 08:48:00;;;;;;;3.83;2.90;;;30.70;90.50;;;;;;4984544;28;20458;-62
2021/07/18 08:50:27;;;;;;;3.67;3.07;;;31.50;89.50;;;;;;4981448;28;20458;-63
2021/07/18 08:52:56;;;;;;;4.80;2.97;;;31.90;90.70;;;;;;4978199;28;20582;-62
2021/07/18 08:55:23;;;;;;;2.60;2.40;;;31.80;87.00;;;;;;4978106;28;20463;-62
2021/07/18 08:57:51;;;;;;;6.07;2.90;;;31.70;88.40;;;;;;4978626;28;20498;-63
2021/07/18 09:00:18;;;;;;;3.40;3.10;;;31.90;88.50;;;;;;4977818;28;20458;-62
2021/07/18 09:02:45;;;;;;;3.13;2.80;;;30.50;90.80;;;;;;4977809;28;20469;-62
2021/07/18 09:05:12;;;;;;;4.13;2.70;;;31.10;90.30;;;;;;4982683;28;20455;-62
2021/07/18 09:07:47;;;;;;;6.40;2.77;;;31.20;90.40;;;;;;4983001;28;20779;-62
2021/07/18 09:10:20;;;;;;;4.33;2.10;;;31.20;87.90;;;;;;4982443;28;20478;-61
2021/07/18 09:13:02;;;;;;;3.17;2.80;;;31.60;91.10;;;;;;4981754;28;20439;-62
2021/07/18 09:15:45;;;;;;;6.20;2.13;;;31.70;87.70;;;;;;4978802;28;20474;-62
2021/07/18 09:18:13;;;;;;;2.47;2.27;;;31.10;87.00;;;;;;4978096;28;20454;-63
2021/07/18 09:20:41;;;;;;;3.70;2.77;;;31.40;86.10;;;;;;4977794;28;20815;-62
2021/07/18 09:23:11;;;;;;;6.53;2.70;;;31.70;90.90;;;;;;4977547;28;20482;-62
2021/07/18 09:25:39;;;;;;;7.20;3.23;;;31.80;85.70;;;;;;4977778;28;20938;-62
2021/07/18 09:28:17;;;;;;;5.00;2.40;;;31.30;91.10;;;;;;4980028;28;20454;-62
2021/07/18 09:30:45;;;;;;;3.67;2.80;;;31.50;88.00;;;;;;4978425;28;20478;-64
2021/07/18 09:33:23;;;;;;;3.00;2.70;;;31.80;87.60;;;;;;4986867;28;20431;-62
2021/07/18 09:35:50;;;;;;;5.77;2.47;;;32.10;85.60;;;;;;4997863;28;20447;-62
2021/07/18 09:38:22;;;;;;;3.03;2.40;;;32.40;87.70;;;;;;5000285;28;20447;-64
2021/07/18 09:40:58;;;;;;;6.67;2.83;;;31.90;84.10;;;;;;4993888;28;20510;-63
2021/07/18 09:43:27;;;;;;;6.97;3.70;;;31.30;88.10;;;;;;4980828;28;20471;-62
2021/07/18 09:45:59;;;;;;;3.87;3.13;;;31.00;90.40;;;;;;4977189;28;20480;-62
2021/07/18 09:48:36;;;;;;;4.03;3.00;;;31.40;91.10;;;;;;4977024;28;20459;-62
2021/07/18 09:51:08;;;;;;;4.47;3.27;;;31.80;86.70;;;;;;4976990;28;20474;-62
2021/07/18 09:53:34;;;;;;;5.23;2.80;;;32.20;88.60;;;;;;4977217;28;20442;-62
2021/07/18 09:56:06;;;;;;;2.80;2.60;;;32.80;86.80;;;;;;4975835;28;20818;-61
2021/07/18 09:58:33;;;;;;;4.93;2.47;;;32.40;82.50;;;;;;4976963;28;20488;-62
2021/07/18 10:01:02;;;;;;;3.53;2.60;;;32.30;86.80;;;;;;4977473;28;20556;-62
2021/07/18 10:03:28;;;;;;;3.37;3.10;;;33.00;85.60;;;;;;4977577;28;20565;-62
2021/07/18 10:06:06;;;;;;;4.63;2.40;;;33.40;87.00;;;;;;4977688;28;20462;-63
2021/07/18 10:08:33;;;;;;;2.97;2.60;;;34.00;82.60;;;;;;4976727;28;20512;-61
2021/07/18 10:11:00;;;;;;;2.37;2.20;;;34.70;75.30;;;;;;4976535;28;20478;-63
2021/07/18 10:13:30;;;;;;;3.07;2.77;;;34.90;75.90;;;;;;4976619;28;20450;-62
2021/07/18 10:15:57;;;;;;;3.57;2.80;;;34.90;73.30;;;;;;4976798;28;20561;-61
2021/07/18 10:18:24;;;;;;;3.10;2.53;;;34.90;73.60;;;;;;4977911;28;20454;-62
2021/07/18 10:20:51;;;;;;;3.20;2.90;;;35.30;72.70;;;;;;4976611;28;20474;-61
2021/07/18 10:23:18;;;;;;;7.03;2.93;;;34.90;75.90;;;;;;4976444;28;20474;-62
2021/07/18 10:25:46;;;;;;;3.93;2.97;;;33.80;73.30;;;;;;4976360;28;20545;-62
2021/07/18 10:28:13;;;;;;;5.13;3.20;;;33.80;74.30;;;;;;4976482;28;20482;-61
2021/07/18 10:30:44;;;;;;;2.57;2.13;;;34.00;75.60;;;;;;4976602;28;20471;-62
2021/07/18 10:33:12;;;;;;;3.70;3.00;;;34.30;73.70;;;;;;4976068;28;20522;-64
2021/07/18 10:35:39;;;;;;;3.83;2.37;;;34.70;72.10;;;;;;4976233;28;20461;-61
2021/07/18 10:38:15;;;;;;;4.53;2.63;;;34.90;73.50;;;;;;4976113;28;20461;-62
2021/07/18 10:40:47;;;;;;;3.03;2.53;;;35.20;72.50;;;;;;4976027;28;20478;-62
2021/07/18 10:43:34;;;;;;;3.60;2.50;;;34.90;72.90;;;;;;4975876;28;20493;-62
2021/07/18 10:46:02;;;;;;;4.80;2.63;;;34.80;69.00;;;;;;4975991;28;20445;-64
2021/07/18 10:48:42;;;;;;;2.90;2.70;;;34.90;69.20;;;;;;4975931;28;20505;-62
2021/07/18 10:51:09;;;;;;;2.43;2.23;;;34.90;71.20;;;;;;4975689;28;20481;-63
2021/07/18 10:53:36;;;;;;;3.23;2.93;;;34.70;70.10;;;;;;4976079;28;20450;-64
2021/07/18 10:56:04;;;;;;;2.80;2.53;;;35.10;71.40;;;;;;4976061;28;20458;-62
2021/07/18 10:58:46;;;;;;;5.43;3.20;;;35.10;71.40;;;;;;4976734;28;20990;-63
2021/07/18 11:01:36;;;;;;;5.10;2.87;;;34.70;72.90;;;;;;4975632;28;20517;-62
2021/07/18 11:04:05;;;;;;;4.13;2.87;;;34.60;75.20;;;;;;4975425;28;20470;-62
2021/07/18 11:06:34;;;;;;;4.97;3.30;;;33.70;75.10;;;;;;4975596;28;21004;-61
2021/07/18 11:09:12;;;;;;;4.23;3.10;;;33.50;73.00;;;;;;4975376;28;20973;-62
2021/07/18 11:11:40;;;;;;;3.40;2.73;;;33.70;72.80;;;;;;4975379;28;20970;-62
2021/07/18 11:14:31;;;;;;;3.40;3.07;;;34.30;74.00;;;;;;4976360;28;20461;-62
2021/07/18 11:17:02;;;;;;;3.90;2.87;;;34.50;74.40;;;;;;4976679;28;20450;-63
2021/07/18 11:20:01;;;;;;;5.07;2.80;;;34.30;72.50;;;;;;4975975;28;20446;-61
2021/07/18 11:22:57;;;;;;;2.90;2.67;;;34.00;73.30;;;;;;4977423;28;20485;-63
2021/07/18 11:25:41;;;;;;;2.93;2.73;;;34.10;73.50;;;;;;4975807;28;20870;-63
2021/07/18 11:28:48;;;;;;;3.87;3.00;;;33.30;71.50;;;;;;4975933;28;20458;-63
2021/07/18 11:31:18;;;;;;;6.40;2.90;;;33.30;76.50;;;;;;4976075;28;20484;-62
2021/07/18 11:34:06;;;;;;;3.47;3.17;;;32.40;76.00;;;;;;4975991;28;20450;-63
2021/07/18 11:36:56;;;;;;;6.20;4.37;;;32.30;78.00;;;;;;4975850;28;20455;-62
2021/07/18 11:39:25;;;;;;;5.67;3.20;;;31.30;79.80;;;;;;4976038;28;20439;-62
2021/07/18 11:41:52;;;;;;;4.93;4.63;;;31.40;80.60;;;;;;4975542;28;20516;-63
2021/07/18 11:44:24;;;;;;;6.33;5.70;;;31.40;79.50;;;;;;4976190;28;20479;-63
2021/07/18 11:46:52;;;;;;;6.30;5.63;;;30.60;77.80;;;;;;4976160;28;20482;-62
2021/07/18 11:49:20;;;;;;;6.50;5.80;;;30.50;81.10;;;;;;4975640;28;20553;-62
2021/07/18 11:51:48;;;;;;;6.40;5.57;;;30.60;83.60;;;;;;4975308;28;20993;-62
2021/07/18 11:54:16;;;;;;;5.50;5.10;;;30.80;81.50;;;;;;4975647;28;20794;-62
2021/07/18 11:56:44;;;;;;;6.00;5.40;;;31.00;82.30;;;;;;4975375;28;20814;-63
2021/07/18 11:59:13;;;;;;;8.57;6.37;;;31.00;81.00;;;;;;4975366;28;20462;-63
2021/07/18 12:01:42;;;;;;;6.10;5.50;;;30.70;82.30;;;;;;4975348;28;20602;-62
2021/07/18 12:04:12;;;;;;;7.70;7.00;;;31.00;84.60;;;;;;4975439;28;20486;-62
2021/07/18 12:06:40;;;;;;;8.03;7.00;;;31.20;82.70;;;;;;4975875;28;20466;-63
2021/07/18 12:09:15;;;;;;;10.13;8.70;;;31.50;78.00;;;;;;4975932;28;20459;-63
2021/07/18 12:11:43;;;;;;;9.70;8.80;;;31.10;78.80;;;;;;4975917;28;20470;-62
2021/07/18 12:14:11;;;;;;;7.97;7.37;;;31.00;79.00;;;;;;4979112;28;20789;-63
2021/07/18 12:16:39;;;;;;;9.40;8.50;;;31.10;80.60;;;;;;4974820;28;20873;-62
2021/07/18 12:19:08;;;;;;;9.40;8.13;;;31.30;79.90;;;;;;4975501;28;20458;-63
2021/07/18 12:21:37;;;;;;;10.27;9.20;;;31.30;80.00;;;;;;4981363;28;20834;-63
2021/07/18 12:24:24;;;;;;;10.70;9.70;;;31.00;80.10;;;;;;4979406;28;20475;-62
2021/07/18 12:27:02;;;;;;;10.80;9.30;;;31.20;79.00;;;;;;4978723;28;20470;-62
2021/07/18 12:29:30;;;;;;;8.43;7.60;;;31.40;81.60;;;;;;4978571;28;20443;-62
2021/07/18 12:31:57;;;;;;;8.23;7.43;;;31.60;80.40;;;;;;4978662;28;20883;-62
2021/07/18 12:34:27;;;;;;;8.43;7.70;;;31.20;81.70;;;;;;4978287;28;20856;-62
2021/07/18 12:37:00;;;;;;;8.60;7.70;;;31.00;84.40;;;;;;4978514;28;20803;-61
2021/07/18 12:39:30;;;;;;;8.30;7.50;;;31.00;84.80;;;;;;4978378;28;20442;-63
2021/07/18 12:41:59;;;;;;;9.20;8.30;;;30.90;80.90;;;;;;4978197;28;20533;-62
2021/07/18 12:44:27;;;;;;;9.50;8.60;;;30.60;82.50;;;;;;4977968;28;21134;-62
2021/07/18 12:47:20;;;;;;;10.40;9.50;;;30.60;84.60;;;;;;4978527;28;20465;-63
2021/07/18 12:50:09;;;;;;;9.50;8.70;;;30.60;84.80;;;;;;4979229;28;20443;-64
2021/07/18 12:52:36;;;;;;;9.60;8.80;;;30.50;81.20;;;;;;4977975;28;20994;-61
2021/07/18 12:55:16;;;;;;;9.03;8.27;;;30.20;83.60;;;;;;4977910;28;20838;-61
2021/07/18 12:57:43;;;;;;;10.40;9.50;;;30.60;85.40;;;;;;4977977;28;20512;-62
2021/07/18 13:00:12;;;;;;;10.90;9.80;;;30.70;81.00;;;;;;4980439;28;20462;-63
2021/07/18 13:02:39;;;;;;;10.87;9.63;;;30.90;81.00;;;;;;4979654;28;20461;-62
2021/07/18 13:05:08;;;;;;;9.43;8.53;;;30.80;81.10;;;;;;4977900;28;20474;-62
2021/07/18 13:07:36;;;;;;;11.33;10.33;;;31.00;82.80;;;;;;4978033;28;20458;-62
2021/07/18 13:10:16;;;;;;;10.80;9.77;;;31.00;82.80;;;;;;4977904;28;20950;-61
2021/07/18 13:12:44;;;;;;;11.00;10.00;;;30.90;82.30;;;;;;4977695;28;20439;-61
2021/07/18 13:15:13;;;;;;;9.63;8.70;;;30.90;80.40;;;;;;4977438;28;20866;-62
2021/07/18 13:17:50;;;;;;;10.67;9.77;;;31.00;81.50;;;;;;4977597;28;20486;-62
2021/07/18 13:20:18;;;;;;;11.40;10.40;;;31.10;82.80;;;;;;4977532;28;20976;-63
2021/07/18 13:22:45;;;;;;;14.50;11.43;;;31.10;80.30;;;;;;4977253;28;20965;-62
2021/07/18 13:25:25;;;;;;;12.23;11.33;;;30.80;80.90;;;;;;4977542;28;20482;-63
2021/07/18 13:27:53;;;;;;;11.10;10.00;;;30.60;83.10;;;;;;4977672;28;20850;-62
2021/07/18 13:30:23;;;;;;;11.70;10.70;;;30.60;81.50;;;;;;4977547;28;20462;-62
2021/07/18 13:32:50;;;;;;;12.30;10.30;;;30.70;84.40;;;;;;4977613;28;20521;-63
2021/07/18 13:35:19;;;;;;;10.97;9.87;;;31.00;82.00;;;;;;4978157;28;20858;-62
2021/07/18 13:37:48;;;;;;;13.17;12.03;;;31.20;82.00;;;;;;4978174;28;20454;-64
2021/07/18 13:40:29;;;;;;;14.73;13.37;;;31.50;81.20;;;;;;4977273;28;20455;-62
2021/07/18 13:43:07;;;;;;;14.87;13.47;;;31.30;77.00;;;;;;4977588;28;20439;-62
2021/07/18 13:45:34;;;;;;;13.73;12.40;;;31.20;80.40;;;;;;4977194;28;20450;-63
2021/07/18 13:48:01;;;;;;;15.17;13.77;;;31.20;78.10;;;;;;4977420;28;20455;-62
2021/07/18 13:50:28;;;;;;;13.30;12.00;;;31.10;81.50;;;;;;4976921;28;20842;-62
2021/07/18 13:52:55;;;;;;;12.10;11.10;;;31.00;80.60;;;;;;4976990;28;20549;-63
2021/07/18 13:55:22;;;;;;;14.40;13.00;;;30.90;82.60;;;;;;4977046;28;20863;-61
2021/07/18 13:57:50;;;;;;;13.80;12.40;;;30.90;81.40;;;;;;4976927;28;20454;-61
2021/07/18 14:00:17;;;;;;;12.60;11.40;;;30.90;82.90;;;;;;4976758;28;20458;-62
2021/07/18 14:02:44;;;;;;;12.50;11.30;;;30.70;82.20;;;;;;4976972;28;20443;-62
2021/07/18 14:05:11;;;;;;;14.90;13.50;;;31.00;83.60;;;;;;4976824;28;20482;-62
2021/07/18 14:07:39;;;;;;;15.93;14.43;;;31.20;78.80;;;;;;4976528;28;20465;-63
2021/07/18 14:10:08;;;;;;;15.37;14.07;;;31.20;80.60;;;;;;4976869;28;20459;-62
2021/07/18 14:12:35;;;;;;;14.00;12.80;;;31.10;78.80;;;;;;4976636;28;20478;-63
2021/07/18 14:15:04;;;;;;;14.50;13.20;;;30.70;80.20;;;;;;4976342;28;20822;-62
2021/07/18 14:17:32;;;;;;;15.23;13.90;;;30.70;80.00;;;;;;4976913;28;20429;-63
2021/07/18 14:19:58;;;;;;;15.27;12.70;;;30.90;79.50;;;;;;4976912;28;20455;-62
2021/07/18 14:22:25;;;;;;;14.40;13.10;;;30.70;79.60;;;;;;4976550;28;20479;-63
2021/07/18 14:24:52;;;;;;;14.23;13.03;;;30.50;79.30;;;;;;4976513;28;20482;-62
2021/07/18 14:27:18;;;;;;;14.17;12.70;;;30.20;80.40;;;;;;4976535;28;20466;-61
2021/07/18 14:29:45;;;;;;;14.20;12.97;;;30.30;80.20;;;;;;4976431;28;20458;-62
2021/07/18 14:32:13;;;;;;;16.50;12.90;;;30.30;85.80;;;;;;4976465;28;20485;-61
2021/07/18 14:34:40;;;;;;;15.07;13.77;;;30.30;81.00;;;;;;4976343;28;20451;-62
2021/07/18 14:37:06;;;;;;;16.20;14.80;;;30.40;82.70;;;;;;4975950;28;20826;-61
2021/07/18 14:39:33;;;;;;;16.23;14.47;;;30.20;79.40;;;;;;4976212;28;20466;-62
2021/07/18 14:42:00;;;;;;;16.23;14.83;;;30.20;80.60;;;;;;4976461;28;20482;-62
2021/07/18 14:44:27;;;;;;;26.53;13.73;;;30.50;80.00;;;;;;4975982;28;20857;-64
2021/07/18 14:46:53;;;;;;;15.00;13.70;;;30.60;82.50;;;;;;4976093;28;20462;-63
2021/07/18 14:49:21;;;;;;;14.93;13.63;;;30.70;82.40;;;;;;4976111;28;20487;-62
2021/07/18 14:51:48;;;;;;;13.77;12.47;;;30.50;81.10;;;;;;4975889;28;20479;-63
2021/07/18 14:54:15;;;;;;;14.97;13.77;;;30.60;85.60;;;;;;4976038;28;20450;-63
2021/07/18 14:56:42;;;;;;;16.53;15.13;;;30.50;82.20;;;;;;4976076;28;20458;-62
2021/07/18 14:59:10;;;;;;;13.93;12.73;;;30.60;81.50;;;;;;4975504;28;21018;-62
2021/07/18 15:01:37;;;;;;;13.13;12.00;;;30.60;79.80;;;;;;4975416;28;20990;-62
2021/07/18 15:04:04;;;;;;;14.47;13.03;;;30.90;80.30;;;;;;4976440;28;20565;-63
2021/07/18 15:06:32;;;;;;;13.23;11.90;;;30.90;79.80;;;;;;4976553;28;20506;-63
2021/07/18 15:08:59;;;;;;;14.03;12.83;;;31.00;80.10;;;;;;4976712;28;20796;-62
2021/07/18 15:11:26;;;;;;;13.90;12.47;;;30.70;80.40;;;;;;4976429;28;20878;-62
2021/07/18 15:13:52;;;;;;;13.40;12.17;;;30.80;83.20;;;;;;4976430;28;20864;-62
2021/07/18 15:16:19;;;;;;;14.33;12.93;;;30.60;80.80;;;;;;4976390;28;20459;-62
2021/07/18 15:18:46;;;;;;;14.47;13.13;;;30.30;81.60;;;;;;4975710;28;20450;-62
2021/07/18 15:21:12;;;;;;;17.30;13.67;;;30.20;83.90;;;;;;4975695;28;20474;-62
2021/07/18 15:23:40;;;;;;;14.77;13.43;;;30.20;85.00;;;;;;4975702;28;20458;-62
2021/07/18 15:26:07;;;;;;;13.37;12.23;;;30.30;86.90;;;;;;4975522;28;20463;-64
2021/07/18 15:28:34;;;;;;;14.27;12.77;;;30.50;86.70;;;;;;4975315;28;20509;-62
2021/07/18 15:31:01;;;;;;;13.40;12.30;;;30.50;84.60;;;;;;4975480;28;20471;-62
2021/07/18 15:33:28;;;;;;;13.23;11.93;;;30.40;84.50;;;;;;4977068;28;20531;-62
2021/07/18 15:35:56;;;;;;;12.50;11.40;;;30.40;82.80;;;;;;4978021;28;20462;-62
2021/07/18 15:38:22;;;;;;;13.07;11.77;;;30.40;82.30;;;;;;4977249;28;20459;-61
2021/07/18 15:40:51;;;;;;;11.97;10.87;;;30.20;82.10;;;;;;4977270;28;20478;-63
2021/07/18 15:43:17;;;;;;;13.00;11.60;;;29.80;84.00;;;;;;4975978;28;20458;-62
2021/07/18 15:45:46;;;;;;;11.83;10.63;;;29.80;84.70;;;;;;4975444;28;20478;-62
2021/07/18 15:48:13;;;;;;;11.00;10.00;;;29.90;84.90;;;;;;4975336;28;20455;-62
2021/07/18 15:50:40;;;;;;;12.90;11.70;;;30.00;85.10;;;;;;4975249;28;20481;-62
2021/07/18 15:53:07;;;;;;;13.77;12.37;;;30.00;84.00;;;;;;4975090;28;20465;-62
2021/07/18 15:55:33;;;;;;;12.37;11.17;;;29.90;85.30;;;;;;4974217;28;20943;-62
2021/07/18 15:58:01;;;;;;;10.50;9.70;;;29.90;83.70;;;;;;4974818;28;20862;-63
2021/07/18 16:00:28;;;;;;;11.10;10.17;;;29.90;84.50;;;;;;4974747;28;20513;-62
2021/07/18 16:02:55;;;;;;;10.37;9.37;;;30.00;85.70;;;;;;4974916;28;20462;-62
2021/07/18 16:05:23;;;;;;;11.20;10.20;;;30.10;84.50;;;;;;4977684;28;20549;-62
2021/07/18 16:07:50;;;;;;;10.53;9.63;;;30.20;84.50;;;;;;4983697;28;20454;-62
2021/07/18 16:10:16;;;;;;;10.33;9.33;;;30.10;85.00;;;;;;4976906;28;20458;-62
2021/07/18 16:12:43;;;;;;;8.57;7.77;;;30.00;87.10;;;;;;4975317;28;20466;-63
2021/07/18 16:15:14;;;;;;;9.40;8.60;;;29.90;87.80;;;;;;4974932;28;20811;-63
2021/07/18 16:17:42;;;;;;;8.90;8.10;;;29.90;86.20;;;;;;4975198;28;20971;-62
2021/07/18 16:20:10;;;;;;;9.30;8.43;;;29.80;86.30;;;;;;4976039;28;20541;-62
2021/07/18 16:22:38;;;;;;;8.83;7.80;;;29.70;86.60;;;;;;4975804;28;20488;-62
2021/07/18 16:25:06;;;;;;;9.60;8.17;;;29.70;88.40;;;;;;4976281;28;20478;-62
2021/07/18 16:27:33;;;;;;;8.40;7.60;;;29.70;88.40;;;;;;4975335;28;20466;-62
2021/07/18 16:30:00;;;;;;;7.23;6.63;;;29.60;88.10;;;;;;4975432;28;20462;-63
2021/07/18 16:32:28;;;;;;;9.50;8.60;;;29.40;88.20;;;;;;4977301;28;20478;-61
2021/07/18 16:34:54;;;;;;;8.00;7.37;;;29.50;88.20;;;;;;4978904;28;20462;-62
2021/07/18 16:37:21;;;;;;;8.00;7.40;;;29.30;87.20;;;;;;4981154;28;20465;-64
2021/07/18 16:39:48;;;;;;;7.87;7.17;;;29.40;88.60;;;;;;4978401;28;20459;-62
2021/07/18 16:42:15;;;;;;;8.00;7.30;;;29.30;88.00;;;;;;4974660;28;20478;-62
2021/07/18 16:44:45;;;;;;;7.30;6.30;;;29.20;89.40;;;;;;4974366;28;20997;-62
2021/07/18 16:47:12;;;;;;;6.27;5.47;;;29.20;88.40;;;;;;4974686;28;20458;-64
2021/07/18 16:49:40;;;;;;;6.40;6.00;;;29.10;88.40;;;;;;4974515;28;20454;-62
2021/07/18 16:52:07;;;;;;;6.43;6.03;;;29.10;90.20;;;;;;4974529;28;20478;-63